Time;durP1;ratioP1;P1;durP2;ratioP2;P2;SDS_P1;SDS_P2;PMS_P1;PMS_P2;Temp;Humidity;BMP_temperature;BMP_pressure;BME280_temperature;BME280_humidity;BME280_pressure;Samples;Min_cycle;Max_cycle;Signal;HPM_P1;HPM_P2
2024/01/23 00:03:35;;;;;;;4.77;2.23;;;5.80;99.90;;;6.18;100.00;98494.28;10390041;28;20593;-61
2024/01/23 00:08:38;;;;;;;3.67;2.10;;;5.70;99.90;;;6.16;100.00;98499.25;10392045;28;20222;-57
2024/01/23 00:13:45;;;;;;;2.40;1.90;;;5.70;99.90;;;6.12;100.00;98501.41;10392395;28;20647;-59
2024/01/23 00:18:49;;;;;;;3.60;2.30;;;5.60;99.90;;;6.24;100.00;98497.38;10392268;28;20230;-62
2024/01/23 00:23:52;;;;;;;3.47;2.40;;;5.70;99.90;;;6.20;100.00;98501.28;10391863;28;20225;-61
2024/01/23 00:28:56;;;;;;;2.63;2.43;;;5.60;99.90;;;6.22;100.00;98509.91;10392623;28;20279;-62
2024/01/23 00:34:00;;;;;;;5.10;2.10;;;5.70;99.90;;;6.26;100.00;98504.31;10391817;28;20246;-62
2024/01/23 00:39:03;;;;;;;2.60;1.70;;;5.60;99.90;;;6.25;100.00;98511.84;10392789;28;20621;-61
2024/01/23 00:44:08;;;;;;;4.53;2.40;;;5.60;99.90;;;6.15;100.00;98501.66;10391362;28;20773;-61
2024/01/23 00:49:11;;;;;;;5.00;2.53;;;5.60;99.90;;;6.14;100.00;98518.53;10393103;28;20225;-59
2024/01/23 00:54:14;;;;;;;4.93;2.30;;;5.50;99.90;;;6.11;100.00;98500.50;10391326;28;20592;-61
2024/01/23 00:59:19;;;;;;;3.40;2.17;;;5.60;99.90;;;6.18;100.00;98505.38;10392062;28;20313;-61
2024/01/23 01:04:22;;;;;;;3.83;2.53;;;5.60;99.90;;;6.05;100.00;98515.22;10409880;22;20234;-62
2024/01/23 01:09:26;;;;;;;3.27;2.23;;;5.50;99.90;;;5.94;100.00;98503.28;10401311;28;20300;-61
2024/01/23 01:14:31;;;;;;;3.30;2.33;;;5.40;99.90;;;5.81;100.00;98494.59;10398097;28;20791;-62
2024/01/23 01:19:34;;;;;;;3.07;2.23;;;5.30;99.90;;;5.78;100.00;98494.34;10400317;28;20239;-61
2024/01/23 01:24:37;;;;;;;3.77;2.07;;;5.30;99.90;;;5.99;100.00;98502.03;10399148;28;20230;-61
2024/01/23 01:29:42;;;;;;;5.27;2.40;;;5.40;99.90;;;6.05;100.00;98512.69;10399551;28;20679;-61
2024/01/23 01:34:45;;;;;;;3.50;2.27;;;5.50;99.90;;;6.27;100.00;98512.84;10397686;28;20222;-62
2024/01/23 01:39:48;;;;;;;2.87;2.50;;;5.80;99.90;;;6.24;100.00;98533.78;10396897;28;20269;-61
2024/01/23 01:44:53;;;;;;;4.53;2.37;;;5.90;99.90;;;6.27;100.00;98564.50;10395233;28;20228;-62
2024/01/23 01:49:56;;;;;;;3.57;2.00;;;5.80;99.90;;;6.16;100.00;98562.72;10397574;28;20308;-62
2024/01/23 01:55:00;;;;;;;4.27;2.23;;;5.70;99.90;;;6.15;100.00;98570.19;10395529;28;20230;-63
2024/01/23 02:00:08;;;;;;;3.07;2.07;;;5.60;99.90;;;5.91;100.00;98571.47;10395360;28;20332;-62
2024/01/23 02:05:12;;;;;;;4.37;2.40;;;5.50;99.90;;;6.05;100.00;98571.03;10396280;28;20243;-62
2024/01/23 02:10:15;;;;;;;5.47;2.00;;;5.50;99.90;;;5.94;100.00;98587.00;10396350;28;20232;-62
2024/01/23 02:15:20;;;;;;;5.07;2.50;;;5.60;99.90;;;6.04;100.00;98574.34;10394816;28;20217;-62
2024/01/23 02:20:23;;;;;;;3.93;2.50;;;5.60;99.90;;;6.00;100.00;98577.38;10396392;28;20653;-62
2024/01/23 02:25:28;;;;;;;3.47;2.03;;;5.60;99.90;;;5.94;100.00;98587.88;10395451;28;20228;-62
2024/01/23 02:30:31;;;;;;;3.27;2.40;;;5.40;99.90;;;5.94;100.00;98584.47;10394513;28;20228;-62
2024/01/23 02:35:35;;;;;;;3.67;1.83;;;5.40;99.90;;;5.76;100.00;98587.16;10395413;28;20225;-62
2024/01/23 02:40:39;;;;;;;4.33;2.40;;;5.30;99.90;;;5.64;100.00;98593.69;10396038;28;20222;-62
2024/01/23 02:45:43;;;;;;;3.80;2.40;;;5.20;99.90;;;5.67;100.00;98600.69;10394843;28;20229;-62
2024/01/23 02:50:46;;;;;;;5.57;2.30;;;5.10;99.90;;;5.76;100.00;98609.09;10395401;28;20308;-61
2024/01/23 02:55:50;;;;;;;3.60;2.33;;;5.20;99.90;;;5.71;100.00;98618.81;10394064;28;20222;-62
2024/01/23 03:00:54;;;;;;;4.37;2.43;;;5.20;99.90;;;5.62;100.00;98638.31;10392660;28;20602;-62
2024/01/23 03:05:57;;;;;;;4.13;2.43;;;5.10;99.90;;;5.66;100.00;98637.81;10394083;28;20233;-62
2024/01/23 03:11:01;;;;;;;5.97;2.93;;;5.10;99.90;;;5.83;100.00;98634.22;10392872;28;20237;-62
2024/01/23 03:16:06;;;;;;;4.77;2.50;;;5.10;99.90;;;5.58;100.00;98623.53;10394561;28;20229;-63
2024/01/23 03:21:09;;;;;;;4.73;2.67;;;5.00;99.90;;;5.58;100.00;98627.00;10394298;28;20236;-62
2024/01/23 03:26:14;;;;;;;6.97;2.40;;;5.00;99.90;;;5.63;100.00;98650.22;10394393;28;20272;-63
2024/01/23 03:31:17;;;;;;;4.77;2.63;;;5.10;99.90;;;5.65;100.00;98643.63;10395709;28;20236;-63
2024/01/23 03:36:20;;;;;;;7.03;3.03;;;5.10;99.90;;;5.52;100.00;98653.44;10394826;28;20601;-63
2024/01/23 03:41:25;;;;;;;5.37;2.43;;;5.10;99.90;;;5.53;100.00;98657.78;10394080;28;20237;-63
2024/01/23 03:46:28;;;;;;;6.97;2.40;;;5.00;99.90;;;5.50;100.00;98663.47;10394085;28;20699;-62
2024/01/23 03:51:32;;;;;;;5.87;2.43;;;5.00;99.90;;;5.49;100.00;98669.25;10395562;28;20218;-62
2024/01/23 03:56:36;;;;;;;6.67;2.77;;;5.00;99.90;;;5.52;100.00;98681.31;10392023;28;20228;-62
2024/01/23 04:01:39;;;;;;;7.43;2.47;;;5.00;99.90;;;5.53;100.00;98675.53;10392543;28;20229;-62
2024/01/23 04:06:43;;;;;;;8.00;2.73;;;5.10;99.90;;;5.50;100.00;98677.78;10395300;28;20328;-63
2024/01/23 04:11:48;;;;;;;6.10;2.30;;;5.00;99.90;;;5.62;100.00;98683.94;10393476;28;20279;-63
2024/01/23 04:16:51;;;;;;;6.43;2.30;;;5.10;99.90;;;5.52;100.00;98686.41;10392583;28;20592;-63
2024/01/23 04:21:54;;;;;;;6.07;2.77;;;5.00;99.90;;;5.63;100.00;98688.25;10392830;28;20234;-63
2024/01/23 04:26:58;;;;;;;5.77;2.70;;;5.10;99.90;;;5.58;100.00;98709.75;10390244;28;20226;-63
2024/01/23 04:32:02;;;;;;;6.60;2.73;;;5.10;99.90;;;5.69;100.00;98710.72;10390192;28;20229;-63
2024/01/23 04:37:05;;;;;;;6.67;2.67;;;5.10;99.90;;;5.75;100.00;98708.75;10393624;28;20580;-61
2024/01/23 04:42:09;;;;;;;7.63;2.87;;;5.20;99.90;;;5.75;100.00;98717.25;10401340;28;20233;-64
2024/01/23 04:47:12;;;;;;;8.13;2.77;;;5.20;99.90;;;5.66;100.00;98736.69;10400308;28;20241;-63
2024/01/23 04:52:16;;;;;;;7.63;3.07;;;5.20;99.90;;;5.62;100.00;98739.72;10401625;28;20229;-62
2024/01/23 04:57:20;;;;;;;7.03;2.97;;;5.10;99.90;;;5.68;100.00;98737.75;10401264;28;20229;-63
2024/01/23 05:02:23;;;;;;;7.13;3.30;;;5.10;99.90;;;5.76;100.00;98752.00;10402507;28;20236;-62
2024/01/23 05:07:27;;;;;;;8.17;3.00;;;5.20;99.90;;;5.91;100.00;98755.03;10404453;28;20230;-63
2024/01/23 05:12:32;;;;;;;8.43;3.13;;;5.30;99.90;;;5.86;100.00;98762.22;10400179;28;20305;-63
2024/01/23 05:17:35;;;;;;;9.07;3.00;;;5.40;99.90;;;5.66;100.00;98789.97;10398271;28;20233;-62
2024/01/23 05:22:38;;;;;;;7.70;3.17;;;5.20;99.90;;;5.70;100.00;98786.97;10399312;28;20234;-63
2024/01/23 05:27:43;;;;;;;12.13;3.57;;;5.20;99.90;;;5.63;100.00;98797.28;10396567;28;20230;-63
2024/01/23 05:32:46;;;;;;;10.03;3.37;;;5.10;99.90;;;5.68;100.00;98806.22;10396883;28;20230;-63
2024/01/23 05:37:50;;;;;;;10.60;3.40;;;5.10;99.90;;;5.91;100.00;98804.88;10399234;28;20240;-62
2024/01/23 05:42:54;;;;;;;9.93;3.03;;;5.20;99.90;;;5.83;100.00;98825.34;10396316;28;20226;-63
2024/01/23 05:47:57;;;;;;;9.27;3.17;;;5.20;99.90;;;5.79;100.00;98827.50;10396866;28;20248;-63
2024/01/23 05:53:00;;;;;;;7.47;3.10;;;5.20;99.90;;;5.72;100.00;98838.69;10394414;28;20229;-63
2024/01/23 05:58:06;;;;;;;8.83;2.97;;;5.20;99.90;;;5.88;100.00;98844.44;10397467;28;20230;-64
2024/01/23 06:03:10;;;;;;;10.53;3.27;;;5.30;99.90;;;5.90;100.00;98856.38;10399420;28;20241;-63
2024/01/23 06:08:13;;;;;;;8.33;2.80;;;5.30;99.90;;;5.82;100.00;98865.81;10401154;28;20256;-62
2024/01/23 06:13:18;;;;;;;5.10;2.50;;;5.30;99.90;;;5.94;100.00;98881.31;10395285;28;20233;-62
2024/01/23 06:18:27;;;;;;;10.67;5.67;;;5.30;99.90;;;5.81;100.00;98895.38;10394817;28;20228;-62
2024/01/23 06:23:30;;;;;;;9.67;4.50;;;5.30;99.90;;;5.86;100.00;98899.19;10398216;28;20234;-62
2024/01/23 06:28:35;;;;;;;11.63;4.60;;;5.20;99.90;;;5.89;100.00;98916.34;10399795;28;20222;-62
2024/01/23 06:33:38;;;;;;;19.30;9.33;;;5.40;99.90;;;5.97;100.00;98927.25;10395499;28;21111;-62
2024/01/23 06:38:42;;;;;;;8.80;3.67;;;5.50;99.90;;;5.87;100.00;98946.66;10396154;28;20737;-61
2024/01/23 06:43:46;;;;;;;8.10;3.00;;;5.40;99.90;;;5.81;100.00;98956.25;10394216;28;20240;-62
2024/01/23 06:48:49;;;;;;;7.67;2.70;;;5.30;99.90;;;5.83;100.00;98972.50;10398521;28;20782;-62
2024/01/23 06:53:55;;;;;;;8.27;3.33;;;5.30;99.90;;;5.88;100.00;98978.00;10400118;28;20607;-61
2024/01/23 06:59:04;;;;;;;4.73;2.90;;;5.30;99.90;;;5.80;100.00;98995.03;10398623;28;20229;-62
2024/01/23 07:04:08;;;;;;;6.77;2.80;;;5.20;99.90;;;5.72;100.00;99010.28;10398330;28;20240;-64
2024/01/23 07:09:11;;;;;;;5.67;2.87;;;5.10;99.90;;;5.82;100.00;99018.91;10399225;28;20344;-61
2024/01/23 07:14:16;;;;;;;5.83;2.40;;;5.20;99.90;;;5.67;100.00;99025.09;10396819;28;20236;-62
2024/01/23 07:19:19;;;;;;;7.77;2.67;;;5.20;99.90;;;5.71;100.00;99047.44;10397696;28;20721;-61
2024/01/23 07:24:24;;;;;;;4.73;2.57;;;5.10;99.90;;;5.59;100.00;99075.06;10397478;28;20233;-61
2024/01/23 07:29:28;;;;;;;4.47;2.40;;;5.00;99.90;;;5.49;100.00;99076.56;10391419;28;21052;-62
2024/01/23 07:34:31;;;;;;;9.87;3.57;;;4.90;99.90;;;5.47;100.00;99085.69;10388684;28;20580;-62
2024/01/23 07:39:36;;;;;;;3.33;2.10;;;4.90;99.90;;;5.73;100.00;99083.13;10391865;28;20259;-61
2024/01/23 07:44:42;;;;;;;7.07;2.53;;;5.10;99.90;;;5.74;100.00;99095.03;10388684;28;20244;-62
2024/01/23 07:49:45;;;;;;;5.70;2.30;;;5.10;99.90;;;5.98;100.00;99101.56;10391076;28;20229;-61
2024/01/23 07:54:52;;;;;;;4.90;2.63;;;5.30;99.90;;;6.03;100.00;99107.97;10387196;28;20230;-62
2024/01/23 07:59:58;;;;;;;4.73;2.40;;;5.60;99.90;;;6.25;100.00;99121.06;10390472;28;20306;-62
2024/01/23 08:05:01;;;;;;;3.23;2.20;;;5.70;99.90;;;6.34;100.00;99124.47;10391559;28;20225;-61
2024/01/23 08:10:06;;;;;;;4.33;2.30;;;5.90;99.90;;;6.91;98.29;99140.78;10389386;28;20574;-62
2024/01/23 08:15:11;;;;;;;3.43;2.10;;;6.40;99.90;;;6.88;93.72;99148.13;10390184;28;20233;-62
2024/01/23 08:20:14;;;;;;;4.37;2.03;;;6.30;99.90;;;6.70;94.10;99162.56;10388933;28;20660;-62
2024/01/23 08:25:17;;;;;;;3.10;1.73;;;6.00;99.90;;;6.64;93.32;99177.25;10389500;28;20236;-62
2024/01/23 08:30:21;;;;;;;3.83;2.73;;;6.10;99.90;;;6.46;95.25;99170.41;10391313;28;20742;-61
2024/01/23 08:35:25;;;;;;;2.93;1.80;;;6.00;99.90;;;6.63;95.76;99170.34;10389579;28;20697;-61
2024/01/23 08:40:28;;;;;;;2.50;2.10;;;6.10;99.90;;;6.52;96.49;99158.28;10390657;28;20229;-62
2024/01/23 08:45:32;;;;;;;3.90;2.30;;;6.00;99.90;;;6.44;97.36;99146.53;10389294;28;20240;-61
2024/01/23 08:50:35;;;;;;;4.40;2.03;;;5.80;99.90;;;6.56;98.83;99156.97;10389107;28;20234;-62
2024/01/23 08:55:39;;;;;;;3.33;1.97;;;5.90;99.90;;;6.88;97.19;99167.56;10390394;28;20230;-62
2024/01/23 09:00:43;;;;;;;2.77;2.00;;;6.40;99.90;;;6.91;95.33;99183.97;10392304;28;20226;-61
2024/01/23 09:05:47;;;;;;;5.07;2.67;;;6.50;99.90;;;7.00;95.14;99199.19;10389986;28;20222;-61
2024/01/23 09:10:50;;;;;;;4.43;2.40;;;6.50;99.90;;;7.13;96.08;99194.50;10390041;28;20717;-61
2024/01/23 09:15:54;;;;;;;4.97;2.77;;;6.40;99.90;;;7.27;93.86;99211.00;10394135;28;20226;-62
2024/01/23 09:21:02;;;;;;;4.27;2.57;;;6.60;99.90;;;7.01;94.21;99216.25;10394350;28;20225;-62
2024/01/23 09:26:05;;;;;;;4.73;2.40;;;6.30;99.90;;;6.95;95.25;99230.91;10391363;28;20303;-62
2024/01/23 09:31:10;;;;;;;5.80;2.73;;;6.20;99.90;;;7.02;93.84;99242.56;10390387;28;20249;-62
2024/01/23 09:36:13;;;;;;;5.67;2.90;;;6.30;99.90;;;7.03;91.84;99242.69;10397947;28;20749;-62
2024/01/23 09:41:16;;;;;;;6.03;2.30;;;6.40;99.90;;;6.86;93.58;99240.22;10408208;22;20592;-60
2024/01/23 09:46:23;;;;;;;4.57;2.40;;;6.30;99.90;;;6.92;95.29;99250.94;10375654;28;20236;-61
2024/01/23 09:51:26;;;;;;;4.43;2.13;;;6.30;99.90;;;7.05;94.97;99269.16;10353571;28;20233;-60
2024/01/23 09:56:31;;;;;;;5.97;2.63;;;6.40;99.90;;;6.93;95.09;99268.00;10352617;28;20300;-60
2024/01/23 10:01:36;;;;;;;4.20;2.30;;;6.30;99.90;;;7.15;95.34;99254.00;10351321;28;20579;-61
2024/01/23 10:06:39;;;;;;;4.10;2.20;;;6.40;99.90;;;7.26;96.39;99252.44;10350142;28;20241;-60
2024/01/23 10:11:42;;;;;;;3.23;2.70;;;6.60;99.90;;;7.53;94.84;99251.53;10351409;28;20756;-60
2024/01/23 10:16:49;;;;;;;4.37;2.50;;;6.80;99.90;;;7.48;93.84;99250.22;10347643;28;20227;-60
2024/01/23 10:21:55;;;;;;;4.03;2.50;;;6.70;99.90;;;7.37;95.09;99263.59;10351022;28;20245;-60
2024/01/23 10:26:58;;;;;;;4.43;2.50;;;6.60;99.90;;;7.17;97.01;99274.47;10350542;28;20305;-60
2024/01/23 10:32:04;;;;;;;3.27;2.17;;;6.50;99.90;;;7.36;95.92;99265.25;10350576;28;20553;-59
2024/01/23 10:37:07;;;;;;;5.23;2.67;;;6.90;99.90;;;7.30;95.28;99266.34;10390719;28;20229;-60
2024/01/23 10:42:11;;;;;;;5.17;2.60;;;7.00;99.90;;;7.37;95.03;99261.06;10389672;28;20609;-60
2024/01/23 10:47:16;;;;;;;6.73;2.37;;;6.80;99.90;;;7.42;94.21;99264.94;10389508;28;20309;-61
2024/01/23 10:52:20;;;;;;;4.30;2.33;;;6.70;99.90;;;7.61;92.90;99260.78;10390630;28;20920;-61
2024/01/23 10:57:24;;;;;;;5.50;2.27;;;7.20;99.90;;;7.73;91.21;99257.56;10392426;28;20225;-61
2024/01/23 11:02:37;;;;;;;6.03;2.30;;;7.40;99.90;;;8.10;91.35;99247.38;10391202;28;20233;-60
2024/01/23 11:07:50;;;;;;;5.33;2.80;;;7.70;99.90;;;8.45;90.11;99235.97;10391643;28;20264;-61
2024/01/23 11:13:07;;;;;;;6.00;2.90;;;8.10;99.90;;;8.37;89.10;99229.28;10387808;28;20717;-59
2024/01/23 11:18:28;;;;;;;6.67;3.10;;;7.80;99.90;;;8.31;88.66;99224.53;10390199;28;20251;-59
2024/01/23 11:23:32;;;;;;;6.77;2.77;;;7.70;99.90;;;8.36;89.60;99218.22;10388777;28;20234;-61
2024/01/23 11:28:37;;;;;;;6.07;3.17;;;7.70;99.90;;;8.49;89.42;99228.72;10386804;28;20602;-60
2024/01/23 11:33:42;;;;;;;7.37;3.20;;;8.10;99.90;;;8.39;87.84;99236.34;10387753;28;20225;-62
2024/01/23 11:38:49;;;;;;;4.67;3.10;;;7.80;99.90;;;8.30;88.32;99238.06;10350244;28;20223;-61
2024/01/23 11:43:54;;;;;;;8.73;3.20;;;7.80;99.90;;;8.12;88.21;99238.19;10348258;28;20593;-61
2024/01/23 11:48:59;;;;;;;8.87;3.17;;;7.60;99.90;;;8.19;88.92;99243.84;10346777;28;20230;-60
2024/01/23 11:54:09;;;;;;;7.20;2.97;;;7.60;99.90;;;8.53;89.72;99256.28;10347153;28;20222;-62
2024/01/23 11:59:12;;;;;;;5.90;2.50;;;8.00;99.90;;;8.76;87.09;99252.28;10351202;28;20222;-59
2024/01/23 12:04:17;;;;;;;6.57;2.80;;;8.20;99.90;;;8.76;84.73;99242.97;10347892;28;20236;-62
2024/01/23 12:09:20;;;;;;;5.82;2.95;;;8.20;99.90;;;8.50;85.83;99240.72;10352933;28;20236;-60
2024/01/23 12:14:23;;;;;;;6.30;3.07;;;7.80;99.90;;;8.36;82.97;99243.69;10349237;28;20242;-60
2024/01/23 12:19:28;;;;;;;5.90;2.80;;;7.70;99.90;;;8.45;81.01;99254.72;10354816;28;20237;-60
2024/01/23 12:24:32;;;;;;;5.25;3.15;;;7.70;99.90;;;8.45;79.71;99254.72;10370321;28;20348;-59
2024/01/23 12:29:35;;;;;;;7.37;3.10;;;7.70;99.90;;;8.35;77.37;99235.16;10390015;28;20307;-58
2024/01/23 12:34:40;;;;;;;7.70;2.60;;;7.50;99.90;;;8.29;76.08;99231.16;10385982;28;20714;-61
2024/01/23 12:39:44;;;;;;;7.70;2.63;;;7.60;99.90;;;8.22;74.57;99222.09;10349986;28;20288;-62
2024/01/23 12:44:48;;;;;;;7.33;2.83;;;7.50;99.90;;;8.24;73.40;99228.22;10350140;28;20382;-61
2024/01/23 12:49:53;;;;;;;8.23;2.87;;;7.60;99.90;;;8.20;75.44;99220.16;10350918;28;20286;-61
2024/01/23 12:54:57;;;;;;;7.17;2.73;;;7.60;99.90;;;8.45;73.35;99213.94;10377166;28;20310;-60
2024/01/23 13:00:00;;;;;;;10.07;3.10;;;7.90;99.90;;;8.58;71.70;99213.34;10392228;28;20229;-61
2024/01/23 13:05:05;;;;;;;10.60;3.28;;;8.00;99.90;;;8.61;72.04;99205.06;10398678;28;20229;-62
2024/01/23 13:10:14;;;;;;;8.85;3.53;;;8.10;99.90;;;8.86;70.30;99197.88;10397191;28;20236;-63
2024/01/23 13:15:18;;;;;;;6.82;3.25;;;8.30;99.90;;;9.17;68.02;99196.25;10395954;28;20743;-61
2024/01/23 13:20:25;;;;;;;7.30;2.75;;;8.50;99.90;;;9.14;68.78;99185.81;10400940;28;20561;-61
2024/01/23 13:25:31;;;;;;;4.13;2.40;;;8.60;99.90;;;9.25;68.62;99185.94;10396535;28;20374;-62
2024/01/23 13:30:34;;;;;;;6.65;2.60;;;8.60;99.90;;;9.45;66.82;99186.72;10392389;28;20598;-61
2024/01/23 13:35:42;;;;;;;7.80;2.72;;;8.90;99.90;;;9.60;66.48;99175.19;10356910;28;20276;-60
2024/01/23 13:40:45;;;;;;;7.85;2.63;;;9.10;99.90;;;9.45;67.34;99169.72;10393683;28;20229;-63
2024/01/23 13:45:49;;;;;;;5.93;2.65;;;9.00;99.90;;;9.33;68.06;99191.69;10395825;28;20367;-60
2024/01/23 13:50:53;;;;;;;5.18;2.80;;;8.90;99.90;;;9.21;68.57;99205.94;10394459;28;20317;-61
2024/01/23 13:55:57;;;;;;;7.03;2.75;;;8.70;99.90;;;9.03;69.21;99206.19;10360777;28;20700;-63
2024/01/23 14:01:00;;;;;;;8.70;2.58;;;8.50;99.90;;;9.01;70.81;99199.16;10361839;28;20223;-60
2024/01/23 14:06:06;;;;;;;8.10;3.28;;;8.30;99.90;;;8.97;71.92;99207.34;10355615;28;20222;-60
2024/01/23 14:11:09;;;;;;;7.03;3.20;;;8.20;99.90;;;8.78;73.01;99209.97;10349092;28;20238;-62
2024/01/23 14:16:13;;;;;;;8.52;3.58;;;8.10;99.90;;;8.89;72.98;99209.22;10352548;28;20725;-61
2024/01/23 14:21:17;;;;;;;13.48;5.85;;;8.10;99.90;;;8.91;72.11;99192.41;10354207;28;20237;-62
2024/01/23 14:26:20;;;;;;;10.70;3.75;;;8.20;99.90;;;8.81;72.83;99187.28;10350247;28;20839;-61
2024/01/23 14:31:23;;;;;;;14.15;5.38;;;8.10;99.90;;;8.75;73.34;99202.03;10350381;28;20377;-63
2024/01/23 14:36:29;;;;;;;22.42;9.70;;;7.90;99.90;;;8.63;74.54;99208.66;10356266;28;20323;-59
2024/01/23 14:41:33;;;;;;;11.27;6.20;;;7.90;99.90;;;8.53;75.30;99212.06;10371834;28;20238;-61
2024/01/23 14:46:38;;;;;;;10.00;4.95;;;7.90;99.90;;;8.45;76.03;99230.88;10393028;28;20275;-61
2024/01/23 14:51:42;;;;;;;6.45;3.20;;;7.70;99.90;;;8.36;77.10;99236.03;10376369;28;20234;-61
2024/01/23 14:56:46;;;;;;;11.60;3.22;;;7.60;99.90;;;8.22;77.24;99237.38;10352098;28;20223;-60
2024/01/23 15:01:51;;;;;;;5.43;2.57;;;7.50;99.90;;;8.08;78.43;99232.72;10366201;28;20801;-62
2024/01/23 15:06:58;;;;;;;8.00;3.55;;;7.40;99.90;;;8.01;79.77;99223.63;10393405;28;20218;-59
2024/01/23 15:12:02;;;;;;;5.65;3.58;;;7.30;99.90;;;7.96;80.53;99214.69;10364983;28;20272;-59
2024/01/23 15:17:06;;;;;;;8.38;3.40;;;7.30;99.90;;;8.01;81.19;99217.63;10352128;28;20226;-63
2024/01/23 15:22:11;;;;;;;6.95;4.05;;;7.30;99.90;;;8.01;81.04;99232.91;10356036;28;20261;-63
2024/01/23 15:27:15;;;;;;;7.30;3.40;;;7.20;99.90;;;7.88;81.88;99261.47;10348917;28;20226;-62
2024/01/23 15:32:18;;;;;;;5.50;3.40;;;7.20;99.90;;;7.80;81.23;99263.31;10355804;28;20780;-60
2024/01/23 15:37:23;;;;;;;7.05;3.85;;;7.10;99.90;;;7.78;82.01;99263.94;10384459;28;20235;-61
2024/01/23 15:42:26;;;;;;;7.37;3.60;;;7.10;99.90;;;7.77;82.66;99265.59;10355522;28;20276;-63
2024/01/23 15:47:31;;;;;;;8.80;4.90;;;7.00;99.90;;;7.74;82.28;99266.97;10360073;28;20317;-63
2024/01/23 15:52:36;;;;;;;8.48;4.28;;;7.00;99.90;;;7.70;83.00;99252.16;10340612;28;20337;-63
2024/01/23 15:57:41;;;;;;;6.23;3.50;;;7.00;99.90;;;7.65;83.50;99252.66;10344268;28;20738;-63
2024/01/23 16:02:44;;;;;;;10.20;5.35;;;6.90;99.90;;;7.57;83.48;99253.59;10342079;28;20229;-61
2024/01/23 16:07:50;;;;;;;10.38;5.80;;;6.90;99.90;;;7.53;84.00;99251.53;10347496;28;20226;-62
2024/01/23 16:12:53;;;;;;;26.40;18.70;;;6.90;99.90;;;7.57;83.83;99255.25;10368637;28;20247;-62
2024/01/23 16:17:57;;;;;;;10.20;6.63;;;6.90;99.90;;;7.68;82.95;99252.03;10384070;28;20256;-62
2024/01/23 16:23:01;;;;;;;6.97;4.40;;;6.90;99.90;;;7.57;83.46;99251.06;10388001;28;20784;-61
2024/01/23 16:28:05;;;;;;;7.33;4.33;;;6.90;99.90;;;7.46;84.05;99246.63;10384190;28;20233;-60
2024/01/23 16:33:08;;;;;;;8.23;4.43;;;6.80;99.90;;;7.49;84.03;99241.81;10395448;28;20235;-63
2024/01/23 16:38:13;;;;;;;13.33;7.53;;;6.80;99.90;;;7.45;84.61;99239.78;10397239;28;20229;-62
2024/01/23 16:43:16;;;;;;;18.50;11.37;;;6.70;99.90;;;7.76;81.89;99240.00;10360368;28;20240;-64
2024/01/23 16:48:19;;;;;;;15.13;7.53;;;7.00;99.90;;;7.64;82.96;99237.22;10363096;28;20230;-64
2024/01/23 16:53:24;;;;;;;14.23;8.03;;;7.00;99.90;;;7.60;83.26;99233.53;10401941;28;20511;-62
2024/01/23 16:58:28;;;;;;;11.07;6.53;;;6.90;99.90;;;7.66;83.12;99221.34;10370522;28;20321;-62
2024/01/23 17:03:31;;;;;;;10.60;4.93;;;6.90;99.90;;;7.81;81.30;99223.47;10365504;28;20234;-62
2024/01/23 17:08:36;;;;;;;6.17;3.03;;;7.00;99.90;;;7.81;80.36;99228.56;10363886;28;20237;-62
2024/01/23 17:13:39;;;;;;;50.30;27.30;;;7.10;99.90;;;7.85;79.99;99230.66;10389612;28;20236;-63
2024/01/23 17:18:42;;;;;;;10.40;5.53;;;7.10;99.90;;;7.71;80.40;99219.22;10413995;22;20613;-63
2024/01/23 17:23:47;;;;;;;8.10;3.97;;;7.00;99.90;;;7.66;81.01;99217.91;10391621;28;20246;-62
2024/01/23 17:28:50;;;;;;;6.70;3.70;;;7.00;99.90;;;7.63;81.34;99218.53;10349493;28;20400;-62
2024/01/23 17:33:54;;;;;;;4.77;3.53;;;6.90;99.90;;;7.49;81.15;99208.75;10322988;28;20252;-63
2024/01/23 17:38:59;;;;;;;12.17;5.07;;;6.90;99.90;;;7.35;81.86;99214.22;10323025;28;20235;-61
2024/01/23 17:44:03;;;;;;;9.80;4.67;;;6.80;99.90;;;7.27;82.70;99194.84;10313873;28;20726;-63
2024/01/23 17:49:06;;;;;;;11.17;6.13;;;6.70;99.90;;;7.27;83.83;99203.38;10311548;28;20318;-63
2024/01/23 17:54:11;;;;;;;13.17;6.07;;;6.60;99.90;;;7.27;82.70;99202.47;10310923;28;20898;-63
2024/01/23 17:59:15;;;;;;;14.30;5.37;;;6.60;99.90;;;7.29;83.06;99208.59;10335981;28;20634;-63
2024/01/23 18:04:18;;;;;;;15.67;8.27;;;6.60;99.90;;;7.22;83.36;99212.22;10315778;28;20224;-64
2024/01/23 18:09:25;;;;;;;13.47;6.77;;;6.60;99.90;;;7.29;82.84;99218.75;10314760;28;20229;-63
2024/01/23 18:14:29;;;;;;;20.30;10.90;;;6.60;99.90;;;7.30;83.61;99224.00;10308793;28;20259;-63
2024/01/23 18:19:32;;;;;;;10.60;4.00;;;6.60;99.90;;;7.59;83.41;99225.78;10308876;28;20314;-63
2024/01/23 18:24:39;;;;;;;10.07;4.70;;;6.70;99.90;;;7.50;86.08;99220.75;10307350;28;20640;-63
2024/01/23 18:29:42;;;;;;;10.70;4.60;;;6.80;99.90;;;7.40;88.00;99213.91;10308574;28;22309;-61
2024/01/23 18:34:45;;;;;;;13.03;4.50;;;6.80;99.90;;;7.35;90.48;99220.22;10308369;28;20227;-62
2024/01/23 18:39:51;;;;;;;10.53;4.57;;;6.70;99.90;;;7.02;94.33;99227.31;10306201;28;20619;-63
2024/01/23 18:44:54;;;;;;;9.20;4.87;;;6.50;99.90;;;7.00;95.57;99219.53;10303804;28;20390;-62
2024/01/23 18:49:57;;;;;;;9.23;4.47;;;6.40;99.90;;;6.88;96.93;99224.38;10302722;28;20238;-62
2024/01/23 18:55:03;;;;;;;12.73;5.00;;;6.20;99.90;;;6.63;98.93;99226.25;10305249;28;20761;-63
2024/01/23 19:00:09;;;;;;;14.90;5.40;;;6.10;99.90;;;6.50;100.00;99224.19;10307933;28;20726;-63
2024/01/23 19:05:13;;;;;;;11.73;4.30;;;5.90;99.90;;;6.43;100.00;99206.56;10308073;28;21061;-63
2024/01/23 19:10:18;;;;;;;9.23;4.23;;;5.90;99.90;;;6.35;100.00;99191.38;10303002;28;20266;-63
2024/01/23 19:15:21;;;;;;;8.73;4.97;;;5.80;99.90;;;6.25;100.00;99172.72;10310959;28;20660;-62
2024/01/23 19:20:26;;;;;;;420.27;224.93;;;5.80;99.90;;;6.22;100.00;99149.59;10301741;28;20721;-62
2024/01/23 19:25:30;;;;;;;67.57;37.70;;;5.70;99.90;;;6.08;100.00;99139.78;10316400;28;20238;-62
2024/01/23 19:30:33;;;;;;;8.80;4.93;;;5.70;99.90;;;6.27;100.00;99117.94;10309981;28;20313;-62
2024/01/23 19:35:37;;;;;;;10.23;4.27;;;5.70;99.90;;;6.13;100.00;99103.03;10305003;28;20693;-61
2024/01/23 19:40:41;;;;;;;8.90;4.70;;;5.70;99.90;;;6.01;100.00;99082.47;10305103;28;20222;-61
2024/01/23 19:45:45;;;;;;;11.50;4.40;;;5.60;99.90;;;6.10;100.00;99067.22;10306121;28;20318;-60
2024/01/23 19:50:49;;;;;;;9.00;3.47;;;5.70;99.90;;;5.94;100.00;99094.44;10307868;28;20977;-61
2024/01/23 19:55:54;;;;;;;9.50;4.03;;;5.60;99.90;;;5.85;100.00;99107.09;10304561;28;20234;-61
2024/01/23 20:00:57;;;;;;;8.80;4.33;;;5.50;99.90;;;5.89;100.00;99076.19;10309286;28;20230;-61
2024/01/23 20:06:01;;;;;;;9.13;3.87;;;5.60;99.90;;;5.95;100.00;99075.91;10306289;28;20230;-61
2024/01/23 20:11:05;;;;;;;6.13;3.30;;;5.50;99.90;;;5.92;100.00;99070.50;10300630;28;20249;-61
2024/01/23 20:16:08;;;;;;;8.43;3.37;;;5.50;99.90;;;5.86;100.00;99064.09;10307094;28;20310;-61
2024/01/23 20:21:12;;;;;;;10.53;3.90;;;5.50;99.90;;;5.97;100.00;99056.66;10310941;28;20306;-61
2024/01/23 20:26:17;;;;;;;10.40;4.20;;;5.50;99.90;;;5.97;100.00;99049.03;10311585;28;20352;-61
2024/01/23 20:31:20;;;;;;;8.47;3.90;;;5.50;99.90;;;6.01;100.00;99067.25;10311400;28;20233;-61
2024/01/23 20:36:24;;;;;;;10.40;3.80;;;5.60;99.90;;;5.89;100.00;99060.97;10298740;28;20765;-60
2024/01/23 20:41:29;;;;;;;7.83;4.30;;;5.60;99.90;;;5.91;100.00;99048.44;10306935;28;20234;-61
2024/01/23 20:46:32;;;;;;;6.97;3.70;;;5.50;99.90;;;5.79;100.00;99018.63;10300126;28;20226;-60
2024/01/23 20:51:37;;;;;;;7.83;3.20;;;5.50;99.90;;;5.76;100.00;99033.56;10303975;28;20310;-61
2024/01/23 20:56:42;;;;;;;8.03;3.70;;;5.40;99.90;;;5.74;100.00;99013.88;10306518;28;20370;-61
2024/01/23 21:01:45;;;;;;;5.13;3.27;;;5.40;99.90;;;5.77;100.00;99040.41;10298031;28;20230;-61
2024/01/23 21:06:48;;;;;;;8.10;3.67;;;5.30;99.90;;;5.78;100.00;99021.94;10301810;28;20407;-60
2024/01/23 21:11:53;;;;;;;4.13;3.10;;;5.40;99.90;;;5.81;100.00;99031.47;10309957;28;20725;-61
2024/01/23 21:16:56;;;;;;;8.17;4.50;;;5.40;99.90;;;5.97;100.00;99004.25;10314548;28;20749;-64
2024/01/23 21:22:00;;;;;;;10.80;7.60;;;5.50;99.90;;;5.91;100.00;99010.38;10301832;28;20691;-60